sensor_id;sensor_type;location;lat;lon;timestamp;pressure;altitude;pressure_sealevel;temperature;humidity
25232;BME280;13176;51.140;6.290;2024-02-15T00:01:18;100865.56;;;13.81;100.00
25232;BME280;13176;51.140;6.290;2024-02-15T00:03:44;101002.94;;;14.85;100.00
25232;BME280;13176;51.140;6.290;2024-02-15T00:06:28;101043.34;;;15.13;100.00
25232;BME280;13176;51.140;6.290;2024-02-15T00:08:55;101022.13;;;15.20;100.00
25232;BME280;13176;51.140;6.290;2024-02-15T00:11:21;101010.44;;;15.00;100.00
25232;BME280;13176;51.140;6.290;2024-02-15T00:13:48;101071.06;;;15.27;100.00
25232;BME280;13176;51.140;6.290;2024-02-15T00:16:15;101015.13;;;15.19;100.00
25232;BME280;13176;51.140;6.290;2024-02-15T00:18:41;101082.78;;;15.46;100.00
25232;BME280;13176;51.140;6.290;2024-02-15T00:21:08;101000.91;;;14.94;100.00
25232;BME280;13176;51.140;6.290;2024-02-15T00:23:34;101070.97;;;15.61;100.00
25232;BME280;13176;51.140;6.290;2024-02-15T00:26:01;101036.50;;;15.39;100.00
25232;BME280;13176;51.140;6.290;2024-02-15T00:28:28;101069.63;;;15.46;100.00
25232;BME280;13176;51.140;6.290;2024-02-15T00:30:54;101017.69;;;15.22;100.00
25232;BME280;13176;51.140;6.290;2024-02-15T00:33:21;101028.75;;;15.03;100.00
25232;BME280;13176;51.140;6.290;2024-02-15T00:35:49;101012.00;;;15.05;100.00
25232;BME280;13176;51.140;6.290;2024-02-15T00:38:18;101029.28;;;15.15;100.00
25232;BME280;13176;51.140;6.290;2024-02-15T00:40:45;101035.78;;;15.34;100.00
25232;BME280;13176;51.140;6.290;2024-02-15T00:43:12;101054.59;;;15.51;100.00
25232;BME280;13176;51.140;6.290;2024-02-15T00:45:39;101029.81;;;15.29;100.00
25232;BME280;13176;51.140;6.290;2024-02-15T00:48:06;101025.97;;;15.41;100.00
25232;BME280;13176;51.140;6.290;2024-02-15T00:50:33;101064.66;;;15.66;100.00
25232;BME280;13176;51.140;6.290;2024-02-15T00:53:00;101021.56;;;15.41;100.00
25232;BME280;13176;51.140;6.290;2024-02-15T00:55:26;101077.63;;;15.74;100.00
25232;BME280;13176;51.140;6.290;2024-02-15T00:57:53;101018.91;;;15.43;100.00
25232;BME280;13176;51.140;6.290;2024-02-15T01:00:19;101042.34;;;15.50;100.00
25232;BME280;13176;51.140;6.290;2024-02-15T01:02:47;101021.16;;;15.23;100.00
25232;BME280;13176;51.140;6.290;2024-02-15T01:05:13;100907.75;;;14.76;100.00
25232;BME280;13176;51.140;6.290;2024-02-15T01:07:41;100983.50;;;15.22;100.00
25232;BME280;13176;51.140;6.290;2024-02-15T01:10:08;101054.34;;;15.60;100.00
25232;BME280;13176;51.140;6.290;2024-02-15T01:12:35;100997.22;;;15.33;100.00
25232;BME280;13176;51.140;6.290;2024-02-15T01:15:02;101024.34;;;15.35;100.00
25232;BME280;13176;51.140;6.290;2024-02-15T01:17:29;100991.59;;;15.15;100.00
25232;BME280;13176;51.140;6.290;2024-02-15T01:19:56;101016.94;;;15.17;100.00
25232;BME280;13176;51.140;6.290;2024-02-15T01:22:22;101024.19;;;15.41;100.00
25232;BME280;13176;51.140;6.290;2024-02-15T01:24:51;101052.88;;;15.50;100.00
25232;BME280;13176;51.140;6.290;2024-02-15T01:27:18;100968.22;;;15.06;100.00
25232;BME280;13176;51.140;6.290;2024-02-15T01:29:44;101019.56;;;15.49;100.00
25232;BME280;13176;51.140;6.290;2024-02-15T01:32:11;101017.94;;;15.45;100.00
25232;BME280;13176;51.140;6.290;2024-02-15T01:34:38;100967.91;;;15.16;100.00
25232;BME280;13176;51.140;6.290;2024-02-15T01:37:04;101041.13;;;15.62;100.00
25232;BME280;13176;51.140;6.290;2024-02-15T01:39:31;101030.25;;;15.43;100.00
25232;BME280;13176;51.140;6.290;2024-02-15T01:41:58;100964.53;;;15.11;100.00
25232;BME280;13176;51.140;6.290;2024-02-15T01:44:25;100978.59;;;15.10;100.00
25232;BME280;13176;51.140;6.290;2024-02-15T01:46:52;101023.94;;;15.50;100.00
25232;BME280;13176;51.140;6.290;2024-02-15T01:49:24;101042.00;;;15.62;100.00
25232;BME280;13176;51.140;6.290;2024-02-15T01:51:53;101023.59;;;15.61;100.00
25232;BME280;13176;51.140;6.290;2024-02-15T01:54:21;101019.50;;;15.52;100.00
25232;BME280;13176;51.140;6.290;2024-02-15T01:56:47;100972.19;;;15.20;100.00
25232;BME280;13176;51.140;6.290;2024-02-15T01:59:15;101027.22;;;15.58;100.00
25232;BME280;13176;51.140;6.290;2024-02-15T02:01:42;101019.66;;;15.46;100.00
25232;BME280;13176;51.140;6.290;2024-02-15T02:04:09;100992.84;;;15.02;100.00
25232;BME280;13176;51.140;6.290;2024-02-15T02:06:38;100913.75;;;14.79;100.00
25232;BME280;13176;51.140;6.290;2024-02-15T02:09:05;101023.78;;;15.24;100.00
25232;BME280;13176;51.140;6.290;2024-02-15T02:11:32;100988.84;;;15.19;100.00
25232;BME280;13176;51.140;6.290;2024-02-15T02:13:59;100991.88;;;15.36;100.00
25232;BME280;13176;51.140;6.290;2024-02-15T02:16:29;101028.97;;;15.58;100.00
25232;BME280;13176;51.140;6.290;2024-02-15T02:18:56;101005.59;;;15.47;100.00
25232;BME280;13176;51.140;6.290;2024-02-15T02:21:33;100977.91;;;15.34;100.00
25232;BME280;13176;51.140;6.290;2024-02-15T02:24:11;100998.53;;;15.49;100.00
25232;BME280;13176;51.140;6.290;2024-02-15T02:26:39;100924.19;;;15.12;100.00
25232;BME280;13176;51.140;6.290;2024-02-15T02:29:06;100965.88;;;15.27;100.00
25232;BME280;13176;51.140;6.290;2024-02-15T02:31:34;101002.97;;;15.47;100.00
25232;BME280;13176;51.140;6.290;2024-02-15T02:34:01;100944.19;;;15.18;100.00
25232;BME280;13176;51.140;6.290;2024-02-15T02:36:28;100950.16;;;15.24;100.00
25232;BME280;13176;51.140;6.290;2024-02-15T02:38:56;100958.53;;;15.38;100.00
25232;BME280;13176;51.140;6.290;2024-02-15T02:41:27;100987.91;;;15.52;100.00
25232;BME280;13176;51.140;6.290;2024-02-15T02:43:56;100970.38;;;15.21;100.00
25232;BME280;13176;51.140;6.290;2024-02-15T02:46:23;100913.94;;;15.03;100.00
25232;BME280;13176;51.140;6.290;2024-02-15T02:48:49;100896.44;;;15.02;100.00
25232;BME280;13176;51.140;6.290;2024-02-15T02:51:17;100960.63;;;15.27;100.00
25232;BME280;13176;51.140;6.290;2024-02-15T02:53:44;100942.88;;;15.34;100.00
25232;BME280;13176;51.140;6.290;2024-02-15T02:56:10;100945.66;;;15.29;100.00
25232;BME280;13176;51.140;6.290;2024-02-15T02:58:37;100956.72;;;15.40;100.00
25232;BME280;13176;51.140;6.290;2024-02-15T03:01:03;100918.78;;;15.18;100.00
25232;BME280;13176;51.140;6.290;2024-02-15T03:03:30;100972.31;;;15.46;100.00
25232;BME280;13176;51.140;6.290;2024-02-15T03:05:57;100921.19;;;15.27;100.00
25232;BME280;13176;51.140;6.290;2024-02-15T03:08:24;100955.78;;;15.43;100.00
25232;BME280;13176;51.140;6.290;2024-02-15T03:10:51;100927.19;;;15.31;100.00
25232;BME280;13176;51.140;6.290;2024-02-15T03:13:18;100914.81;;;15.34;100.00
25232;BME280;13176;51.140;6.290;2024-02-15T03:15:45;100972.88;;;15.57;100.00
25232;BME280;13176;51.140;6.290;2024-02-15T03:18:17;100885.03;;;15.03;100.00
25232;BME280;13176;51.140;6.290;2024-02-15T03:20:43;100927.94;;;15.36;100.00
25232;BME280;13176;51.140;6.290;2024-02-15T03:23:10;100883.00;;;15.13;100.00
25232;BME280;13176;51.140;6.290;2024-02-15T03:25:38;100902.78;;;15.27;100.00
25232;BME280;13176;51.140;6.290;2024-02-15T03:28:04;100922.53;;;15.40;100.00
25232;BME280;13176;51.140;6.290;2024-02-15T03:30:32;100955.56;;;15.49;100.00
25232;BME280;13176;51.140;6.290;2024-02-15T03:33:00;100866.38;;;15.12;100.00
25232;BME280;13176;51.140;6.290;2024-02-15T03:35:32;100929.69;;;15.64;100.00
25232;BME280;13176;51.140;6.290;2024-02-15T03:37:59;100803.00;;;14.64;100.00
25232;BME280;13176;51.140;6.290;2024-02-15T03:40:26;100936.94;;;15.56;100.00
25232;BME280;13176;51.140;6.290;2024-02-15T03:42:53;100816.44;;;14.83;100.00
25232;BME280;13176;51.140;6.290;2024-02-15T03:45:20;100782.69;;;14.70;100.00
25232;BME280;13176;51.140;6.290;2024-02-15T03:47:47;100900.56;;;15.41;100.00
25232;BME280;13176;51.140;6.290;2024-02-15T03:50:16;100920.75;;;15.70;100.00
25232;BME280;13176;51.140;6.290;2024-02-15T03:52:45;100900.66;;;15.38;100.00
25232;BME280;13176;51.140;6.290;2024-02-15T03:55:12;100916.84;;;15.54;100.00
25232;BME280;13176;51.140;6.290;2024-02-15T03:57:40;100924.81;;;15.51;100.00
25232;BME280;13176;51.140;6.290;2024-02-15T04:00:13;100948.69;;;15.74;100.00
25232;BME280;13176;51.140;6.290;2024-02-15T04:02:48;100957.25;;;15.80;100.00
25232;BME280;13176;51.140;6.290;2024-02-15T04:05:16;100928.25;;;15.54;100.00
25232;BME280;13176;51.140;6.290;2024-02-15T04:07:44;100943.34;;;15.75;100.00
25232;BME280;13176;51.140;6.290;2024-02-15T04:10:11;100928.91;;;15.61;100.00
25232;BME280;13176;51.140;6.290;2024-02-15T04:12:38;100913.47;;;15.49;100.00
25232;BME280;13176;51.140;6.290;2024-02-15T04:15:08;100877.63;;;15.17;100.00
25232;BME280;13176;51.140;6.290;2024-02-15T04:17:40;100924.06;;;15.47;100.00
25232;BME280;13176;51.140;6.290;2024-02-15T04:20:08;100854.31;;;15.05;100.00
25232;BME280;13176;51.140;6.290;2024-02-15T04:22:35;100911.09;;;15.41;100.00
25232;BME280;13176;51.140;6.290;2024-02-15T04:25:06;100957.91;;;15.59;100.00
25232;BME280;13176;51.140;6.290;2024-02-15T04:27:33;100937.53;;;15.66;100.00
25232;BME280;13176;51.140;6.290;2024-02-15T04:30:00;100910.19;;;15.42;100.00
25232;BME280;13176;51.140;6.290;2024-02-15T04:32:26;100947.38;;;15.59;100.00
25232;BME280;13176;51.140;6.290;2024-02-15T04:34:55;100887.97;;;15.22;100.00
25232;BME280;13176;51.140;6.290;2024-02-15T04:37:21;100905.06;;;15.38;100.00
25232;BME280;13176;51.140;6.290;2024-02-15T04:39:49;100931.00;;;15.50;100.00
25232;BME280;13176;51.140;6.290;2024-02-15T04:42:15;100967.03;;;15.75;100.00
25232;BME280;13176;51.140;6.290;2024-02-15T04:44:44;100831.16;;;14.89;100.00
25232;BME280;13176;51.140;6.290;2024-02-15T04:47:11;100794.13;;;14.68;100.00
25232;BME280;13176;51.140;6.290;2024-02-15T04:49:37;100905.91;;;15.38;100.00
25232;BME280;13176;51.140;6.290;2024-02-15T04:52:05;100880.34;;;15.14;100.00
25232;BME280;13176;51.140;6.290;2024-02-15T04:54:32;100908.13;;;15.23;100.00
25232;BME280;13176;51.140;6.290;2024-02-15T04:56:59;100910.75;;;15.23;100.00
25232;BME280;13176;51.140;6.290;2024-02-15T04:59:27;100830.91;;;14.68;100.00
25232;BME280;13176;51.140;6.290;2024-02-15T05:01:55;100918.78;;;15.18;100.00
25232;BME280;13176;51.140;6.290;2024-02-15T05:04:24;100788.78;;;14.42;100.00
25232;BME280;13176;51.140;6.290;2024-02-15T05:06:51;100830.56;;;14.80;100.00
25232;BME280;13176;51.140;6.290;2024-02-15T05:09:19;100939.13;;;15.42;100.00
25232;BME280;13176;51.140;6.290;2024-02-15T05:11:46;100818.41;;;14.76;100.00
25232;BME280;13176;51.140;6.290;2024-02-15T05:14:14;100953.00;;;15.47;100.00
25232;BME280;13176;51.140;6.290;2024-02-15T05:16:46;100937.38;;;15.41;100.00
25232;BME280;13176;51.140;6.290;2024-02-15T05:19:41;100955.69;;;15.46;100.00
25232;BME280;13176;51.140;6.290;2024-02-15T05:22:11;100777.94;;;14.22;100.00
25232;BME280;13176;51.140;6.290;2024-02-15T05:24:39;100922.47;;;15.11;100.00
25232;BME280;13176;51.140;6.290;2024-02-15T05:27:06;100845.59;;;14.75;100.00
25232;BME280;13176;51.140;6.290;2024-02-15T05:29:32;100808.72;;;14.49;100.00
25232;BME280;13176;51.140;6.290;2024-02-15T05:32:01;100859.16;;;14.90;100.00
25232;BME280;13176;51.140;6.290;2024-02-15T05:34:28;100801.03;;;14.72;100.00
25232;BME280;13176;51.140;6.290;2024-02-15T05:36:56;100899.47;;;15.19;100.00
25232;BME280;13176;51.140;6.290;2024-02-15T05:39:23;100744.56;;;14.27;100.00
25232;BME280;13176;51.140;6.290;2024-02-15T05:41:49;100800.84;;;14.49;100.00
25232;BME280;13176;51.140;6.290;2024-02-15T05:44:16;100785.59;;;14.60;100.00
25232;BME280;13176;51.140;6.290;2024-02-15T05:46:46;100917.66;;;15.27;100.00
25232;BME280;13176;51.140;6.290;2024-02-15T05:49:13;100882.31;;;15.06;100.00
25232;BME280;13176;51.140;6.290;2024-02-15T05:51:43;100919.44;;;15.25;100.00
25232;BME280;13176;51.140;6.290;2024-02-15T05:54:11;100839.44;;;14.76;100.00
25232;BME280;13176;51.140;6.290;2024-02-15T05:56:38;100883.38;;;15.01;100.00
25232;BME280;13176;51.140;6.290;2024-02-15T05:59:06;100899.72;;;15.10;100.00
25232;BME280;13176;51.140;6.290;2024-02-15T06:01:37;100884.28;;;14.98;100.00
25232;BME280;13176;51.140;6.290;2024-02-15T06:04:05;100873.94;;;14.94;100.00
25232;BME280;13176;51.140;6.290;2024-02-15T06:06:35;100860.03;;;14.90;100.00
25232;BME280;13176;51.140;6.290;2024-02-15T06:09:01;100882.53;;;14.99;100.00
25232;BME280;13176;51.140;6.290;2024-02-15T06:11:29;100915.78;;;15.30;100.00
25232;BME280;13176;51.140;6.290;2024-02-15T06:13:56;100776.31;;;14.48;100.00
25232;BME280;13176;51.140;6.290;2024-02-15T06:16:24;100780.81;;;14.45;100.00
25232;BME280;13176;51.140;6.290;2024-02-15T06:18:51;100842.97;;;14.75;100.00
25232;BME280;13176;51.140;6.290;2024-02-15T06:21:17;100765.22;;;14.39;100.00
25232;BME280;13176;51.140;6.290;2024-02-15T06:23:46;100915.16;;;15.22;100.00
25232;BME280;13176;51.140;6.290;2024-02-15T06:26:14;100860.72;;;14.95;100.00
25232;BME280;13176;51.140;6.290;2024-02-15T06:28:41;100875.44;;;15.02;100.00
25232;BME280;13176;51.140;6.290;2024-02-15T06:31:26;100846.00;;;14.91;100.00
25232;BME280;13176;51.140;6.290;2024-02-15T06:34:11;100883.78;;;15.16;100.00
25232;BME280;13176;51.140;6.290;2024-02-15T06:36:56;100888.81;;;15.24;100.00
25232;BME280;13176;51.140;6.290;2024-02-15T06:39:41;100907.81;;;15.33;100.00
25232;BME280;13176;51.140;6.290;2024-02-15T06:42:14;100811.63;;;14.69;100.00
25232;BME280;13176;51.140;6.290;2024-02-15T06:44:47;100799.31;;;14.71;100.00
25232;BME280;13176;51.140;6.290;2024-02-15T06:47:14;100892.31;;;15.24;100.00
25232;BME280;13176;51.140;6.290;2024-02-15T06:49:45;100848.31;;;15.00;100.00
25232;BME280;13176;51.140;6.290;2024-02-15T06:52:12;100880.34;;;15.14;100.00
25232;BME280;13176;51.140;6.290;2024-02-15T06:54:41;100834.25;;;14.73;100.00
25232;BME280;13176;51.140;6.290;2024-02-15T06:57:07;100818.84;;;14.61;100.00
25232;BME280;13176;51.140;6.290;2024-02-15T06:59:34;100880.00;;;14.96;100.00
25232;BME280;13176;51.140;6.290;2024-02-15T07:02:01;100873.78;;;14.98;100.00
25232;BME280;13176;51.140;6.290;2024-02-15T07:04:31;100873.88;;;14.95;100.00
25232;BME280;13176;51.140;6.290;2024-02-15T07:06:58;100911.97;;;15.11;100.00
25232;BME280;13176;51.140;6.290;2024-02-15T07:09:26;100862.75;;;14.87;100.00
25232;BME280;13176;51.140;6.290;2024-02-15T07:11:54;100862.91;;;14.82;100.00
25232;BME280;13176;51.140;6.290;2024-02-15T07:14:20;100809.63;;;14.46;100.00
25232;BME280;13176;51.140;6.290;2024-02-15T07:16:48;100840.13;;;14.52;100.00
25232;BME280;13176;51.140;6.290;2024-02-15T07:19:16;100738.31;;;13.99;100.00
25232;BME280;13176;51.140;6.290;2024-02-15T07:21:43;100865.78;;;14.73;100.00
25232;BME280;13176;51.140;6.290;2024-02-15T07:24:10;100879.81;;;14.72;100.00
25232;BME280;13176;51.140;6.290;2024-02-15T07:26:36;100792.91;;;14.18;100.00
25232;BME280;13176;51.140;6.290;2024-02-15T07:29:03;100754.06;;;13.99;100.00
25232;BME280;13176;51.140;6.290;2024-02-15T07:31:34;100721.38;;;13.80;100.00
25232;BME280;13176;51.140;6.290;2024-02-15T07:34:00;100829.88;;;14.43;100.00
25232;BME280;13176;51.140;6.290;2024-02-15T07:36:27;100847.94;;;14.53;100.00
25232;BME280;13176;51.140;6.290;2024-02-15T07:38:54;100897.22;;;14.76;100.00
25232;BME280;13176;51.140;6.290;2024-02-15T07:41:24;100837.88;;;14.38;100.00
25232;BME280;13176;51.140;6.290;2024-02-15T07:43:51;100846.56;;;14.40;100.00
25232;BME280;13176;51.140;6.290;2024-02-15T07:46:21;100873.19;;;14.59;100.00
25232;BME280;13176;51.140;6.290;2024-02-15T07:48:48;100900.75;;;14.75;100.00
25232;BME280;13176;51.140;6.290;2024-02-15T07:51:16;100898.06;;;14.76;100.00
25232;BME280;13176;51.140;6.290;2024-02-15T07:53:44;100897.22;;;14.76;100.00
25232;BME280;13176;51.140;6.290;2024-02-15T07:56:13;100838.56;;;14.45;100.00
25232;BME280;13176;51.140;6.290;2024-02-15T07:58:44;100877.19;;;14.73;100.00
25232;BME280;13176;51.140;6.290;2024-02-15T08:01:19;100886.41;;;14.87;100.00
25232;BME280;13176;51.140;6.290;2024-02-15T08:03:51;100874.06;;;14.89;100.00
25232;BME280;13176;51.140;6.290;2024-02-15T08:06:20;100837.53;;;14.81;100.00
25232;BME280;13176;51.140;6.290;2024-02-15T08:08:48;100878.63;;;15.13;100.00
25232;BME280;13176;51.140;6.290;2024-02-15T08:11:17;100854.56;;;14.96;100.00
25232;BME280;13176;51.140;6.290;2024-02-15T08:16:14;100906.00;;;15.35;100.00
25232;BME280;13176;51.140;6.290;2024-02-15T08:18:43;100912.63;;;15.48;100.00
25232;BME280;13176;51.140;6.290;2024-02-15T08:21:13;100825.47;;;15.04;100.00
25232;BME280;13176;51.140;6.290;2024-02-15T08:23:41;100878.59;;;15.44;100.00
25232;BME280;13176;51.140;6.290;2024-02-15T08:26:08;100881.44;;;15.36;100.00
25232;BME280;13176;51.140;6.290;2024-02-15T08:28:37;100877.81;;;15.40;100.00
25232;BME280;13176;51.140;6.290;2024-02-15T08:31:04;100854.38;;;15.33;100.00
25232;BME280;13176;51.140;6.290;2024-02-15T08:33:30;100856.97;;;15.34;100.00
25232;BME280;13176;51.140;6.290;2024-02-15T08:35:57;100903.84;;;15.49;100.00
25232;BME280;13176;51.140;6.290;2024-02-15T08:38:24;100897.53;;;15.55;100.00
25232;BME280;13176;51.140;6.290;2024-02-15T08:40:51;100911.38;;;15.61;100.00
25232;BME280;13176;51.140;6.290;2024-02-15T08:43:18;100808.81;;;15.03;100.00
25232;BME280;13176;51.140;6.290;2024-02-15T08:45:44;100815.13;;;14.98;100.00
25232;BME280;13176;51.140;6.290;2024-02-15T08:48:11;100868.19;;;15.39;100.00
25232;BME280;13176;51.140;6.290;2024-02-15T08:50:39;100822.78;;;15.05;100.00
25232;BME280;13176;51.140;6.290;2024-02-15T08:53:08;100825.84;;;15.19;100.00
25232;BME280;13176;51.140;6.290;2024-02-15T08:55:34;100855.06;;;15.39;100.00
25232;BME280;13176;51.140;6.290;2024-02-15T08:58:02;100880.06;;;15.52;100.00
25232;BME280;13176;51.140;6.290;2024-02-15T09:00:30;100875.22;;;15.66;100.00
25232;BME280;13176;51.140;6.290;2024-02-15T09:02:57;100735.09;;;14.81;100.00
25232;BME280;13176;51.140;6.290;2024-02-15T09:05:24;100831.91;;;15.50;100.00
25232;BME280;13176;51.140;6.290;2024-02-15T09:07:51;100876.94;;;15.67;100.00
25232;BME280;13176;51.140;6.290;2024-02-15T09:10:18;100876.66;;;15.76;100.00
25232;BME280;13176;51.140;6.290;2024-02-15T09:12:46;100881.94;;;15.76;100.00
25232;BME280;13176;51.140;6.290;2024-02-15T09:15:17;100885.09;;;15.87;100.00
25232;BME280;13176;51.140;6.290;2024-02-15T09:17:45;100823.13;;;15.51;100.00
25232;BME280;13176;51.140;6.290;2024-02-15T09:20:15;100866.13;;;15.76;100.00
25232;BME280;13176;51.140;6.290;2024-02-15T09:22:49;100804.81;;;15.48;100.00
25232;BME280;13176;51.140;6.290;2024-02-15T09:25:20;100764.66;;;15.14;100.00
25232;BME280;13176;51.140;6.290;2024-02-15T09:27:46;100821.50;;;15.47;100.00
25232;BME280;13176;51.140;6.290;2024-02-15T09:30:13;100860.59;;;15.85;100.00
25232;BME280;13176;51.140;6.290;2024-02-15T09:32:42;100688.63;;;14.82;100.00
25232;BME280;13176;51.140;6.290;2024-02-15T09:35:10;100749.38;;;15.28;100.00
25232;BME280;13176;51.140;6.290;2024-02-15T09:37:45;100871.91;;;16.13;100.00
25232;BME280;13176;51.140;6.290;2024-02-15T09:40:13;100740.94;;;15.45;100.00
25232;BME280;13176;51.140;6.290;2024-02-15T09:42:42;100881.97;;;16.26;100.00
25232;BME280;13176;51.140;6.290;2024-02-15T09:45:13;100758.38;;;15.47;100.00
25232;BME280;13176;51.140;6.290;2024-02-15T09:47:44;100724.34;;;15.15;100.00
25232;BME280;13176;51.140;6.290;2024-02-15T09:50:13;100718.78;;;15.24;100.00
25232;BME280;13176;51.140;6.290;2024-02-15T09:52:48;100694.41;;;15.19;100.00
25232;BME280;13176;51.140;6.290;2024-02-15T09:55:16;100749.47;;;15.51;100.00
25232;BME280;13176;51.140;6.290;2024-02-15T09:57:44;100750.94;;;15.60;100.00
25232;BME280;13176;51.140;6.290;2024-02-15T10:00:11;100750.91;;;15.61;100.00
25232;BME280;13176;51.140;6.290;2024-02-15T10:02:47;100855.91;;;16.19;100.00
25232;BME280;13176;51.140;6.290;2024-02-15T10:05:16;100847.09;;;16.20;100.00
25232;BME280;13176;51.140;6.290;2024-02-15T10:07:46;100863.09;;;16.40;100.00
25232;BME280;13176;51.140;6.290;2024-02-15T10:10:21;100838.19;;;16.24;100.00
25232;BME280;13176;51.140;6.290;2024-02-15T10:12:49;100700.84;;;15.63;100.00
25232;BME280;13176;51.140;6.290;2024-02-15T10:15:31;100736.41;;;15.74;100.00
25232;BME280;13176;51.140;6.290;2024-02-15T10:18:01;100737.06;;;15.81;100.00
25232;BME280;13176;51.140;6.290;2024-02-15T10:20:28;100841.25;;;16.38;100.00
25232;BME280;13176;51.140;6.290;2024-02-15T10:25:26;100840.91;;;16.47;100.00
25232;BME280;13176;51.140;6.290;2024-02-15T10:28:01;100678.06;;;15.63;100.00
25232;BME280;13176;51.140;6.290;2024-02-15T10:30:29;100696.50;;;15.86;100.00
25232;BME280;13176;51.140;6.290;2024-02-15T10:32:55;100854.56;;;16.82;100.00
25232;BME280;13176;51.140;6.290;2024-02-15T10:35:24;100695.91;;;16.02;100.00
25232;BME280;13176;51.140;6.290;2024-02-15T10:37:51;100835.00;;;17.11;100.00
25232;BME280;13176;51.140;6.290;2024-02-15T10:40:18;100841.22;;;17.32;100.00
25232;BME280;13176;51.140;6.290;2024-02-15T10:42:51;100836.59;;;17.14;100.00
25232;BME280;13176;51.140;6.290;2024-02-15T10:45:18;100822.97;;;16.81;100.00
25232;BME280;13176;51.140;6.290;2024-02-15T10:47:46;100700.16;;;16.29;100.00
25232;BME280;13176;51.140;6.290;2024-02-15T10:50:14;100728.44;;;16.49;100.00
25232;BME280;13176;51.140;6.290;2024-02-15T10:52:51;100825.94;;;17.17;100.00
25232;BME280;13176;51.140;6.290;2024-02-15T10:55:43;100826.72;;;17.19;100.00
25232;BME280;13176;51.140;6.290;2024-02-15T10:58:16;100810.03;;;16.75;100.00
25232;BME280;13176;51.140;6.290;2024-02-15T11:00:46;100813.00;;;16.89;100.00
25232;BME280;13176;51.140;6.290;2024-02-15T11:03:19;100739.94;;;16.92;96.29
25232;BME280;13176;51.140;6.290;2024-02-15T11:05:52;100830.72;;;17.52;98.22
25232;BME280;13176;51.140;6.290;2024-02-15T11:08:24;100675.31;;;17.04;97.61
25232;BME280;13176;51.140;6.290;2024-02-15T11:10:51;100654.56;;;17.37;93.33
25232;BME280;13176;51.140;6.290;2024-02-15T11:13:20;100759.13;;;18.01;89.59
25232;BME280;13176;51.140;6.290;2024-02-15T11:15:46;100820.50;;;18.67;84.80
25232;BME280;13176;51.140;6.290;2024-02-15T11:18:45;100799.56;;;19.00;87.97
25232;BME280;13176;51.140;6.290;2024-02-15T11:21:15;100813.31;;;19.08;80.46
25232;BME280;13176;51.140;6.290;2024-02-15T11:23:44;100727.38;;;18.61;82.40
25232;BME280;13176;51.140;6.290;2024-02-15T11:26:43;100817.81;;;19.43;82.57
25232;BME280;13176;51.140;6.290;2024-02-15T11:32:45;100815.13;;;19.26;80.96
25232;BME280;13176;51.140;6.290;2024-02-15T11:35:15;100817.13;;;19.21;82.45
25232;BME280;13176;51.140;6.290;2024-02-15T11:40:21;100807.34;;;18.84;85.14
25232;BME280;13176;51.140;6.290;2024-02-15T11:42:53;100724.66;;;18.24;82.83
25232;BME280;13176;51.140;6.290;2024-02-15T11:45:20;100748.47;;;18.81;80.81
25232;BME280;13176;51.140;6.290;2024-02-15T11:47:49;100557.72;;;18.16;80.79
25232;BME280;13176;51.140;6.290;2024-02-15T11:50:18;100770.19;;;19.43;80.02
25232;BME280;13176;51.140;6.290;2024-02-15T11:52:45;100760.72;;;19.55;78.57
25232;BME280;13176;51.140;6.290;2024-02-15T11:55:18;100799.22;;;19.62;76.28
25232;BME280;13176;51.140;6.290;2024-02-15T11:57:58;100790.25;;;20.00;76.37
25232;BME280;13176;51.140;6.290;2024-02-15T12:00:38;100722.81;;;19.37;75.38
25232;BME280;13176;51.140;6.290;2024-02-15T12:03:25;100773.41;;;19.66;75.11
25232;BME280;13176;51.140;6.290;2024-02-15T12:06:27;100785.47;;;19.54;77.75
25232;BME280;13176;51.140;6.290;2024-02-15T12:09:17;100782.19;;;19.66;77.67
25232;BME280;13176;51.140;6.290;2024-02-15T12:12:03;100663.09;;;18.96;77.84
25232;BME280;13176;51.140;6.290;2024-02-15T12:14:48;100699.53;;;19.08;75.83
25232;BME280;13176;51.140;6.290;2024-02-15T12:17:33;100718.31;;;19.22;76.46
25232;BME280;13176;51.140;6.290;2024-02-15T12:20:18;100734.22;;;19.55;77.05
25232;BME280;13176;51.140;6.290;2024-02-15T12:22:51;100750.06;;;19.74;77.24
25232;BME280;13176;51.140;6.290;2024-02-15T12:25:19;100713.34;;;19.50;75.73
25232;BME280;13176;51.140;6.290;2024-02-15T12:27:55;100674.50;;;19.33;75.19
25232;BME280;13176;51.140;6.290;2024-02-15T12:30:22;100628.75;;;19.13;74.64
25232;BME280;13176;51.140;6.290;2024-02-15T12:32:49;100622.19;;;19.03;74.54
25232;BME280;13176;51.140;6.290;2024-02-15T12:35:20;100719.91;;;19.59;72.99
25232;BME280;13176;51.140;6.290;2024-02-15T12:37:47;100661.00;;;19.21;75.91
25232;BME280;13176;51.140;6.290;2024-02-15T12:40:16;100574.09;;;18.78;76.63
25232;BME280;13176;51.140;6.290;2024-02-15T12:42:45;100737.81;;;19.71;77.06
25232;BME280;13176;51.140;6.290;2024-02-15T12:45:25;100730.50;;;19.76;77.11
25232;BME280;13176;51.140;6.290;2024-02-15T12:47:54;100718.94;;;19.44;75.59
25232;BME280;13176;51.140;6.290;2024-02-15T12:50:30;100611.94;;;18.78;75.08
25232;BME280;13176;51.140;6.290;2024-02-15T12:52:58;100717.69;;;19.34;75.86
25232;BME280;13176;51.140;6.290;2024-02-15T12:55:35;100723.31;;;19.28;76.66
25232;BME280;13176;51.140;6.290;2024-02-15T12:58:12;100658.72;;;18.95;75.26
25232;BME280;13176;51.140;6.290;2024-02-15T13:00:40;100694.50;;;19.39;74.68
25232;BME280;13176;51.140;6.290;2024-02-15T13:03:08;100704.63;;;19.48;73.84